createdAt,value
2023-12-15T00:00:31.839Z,5.68
2023-12-15T00:02:59.073Z,5.68
2023-12-15T00:05:26.394Z,5.60
2023-12-15T00:07:53.708Z,5.57
2023-12-15T00:10:21.033Z,5.30
2023-12-15T00:12:48.311Z,5.70
2023-12-15T00:15:15.497Z,6.53
2023-12-15T00:17:43.079Z,5.63
2023-12-15T00:20:10.969Z,5.63
2023-12-15T00:22:38.278Z,5.40
2023-12-15T00:25:05.640Z,5.13
2023-12-15T00:27:32.883Z,5.80
2023-12-15T00:30:00.072Z,6.20
2023-12-15T00:32:27.440Z,5.20
2023-12-15T00:34:54.671Z,5.50
2023-12-15T00:37:21.922Z,6.28
2023-12-15T00:39:49.583Z,6.22
2023-12-15T00:42:16.780Z,4.93
2023-12-15T00:44:43.992Z,5.07
2023-12-15T00:47:11.264Z,5.65
2023-12-15T00:49:38.449Z,5.22
2023-12-15T00:52:06.836Z,5.40
2023-12-15T00:54:34.650Z,5.35
2023-12-15T00:57:01.929Z,5.05
2023-12-15T00:59:29.255Z,5.45
2023-12-15T01:01:56.536Z,5.40
2023-12-15T01:04:23.802Z,5.30
2023-12-15T01:06:51.008Z,5.78
2023-12-15T01:09:18.352Z,5.45
2023-12-15T01:11:45.616Z,5.63
2023-12-15T01:14:12.839Z,5.93
2023-12-15T01:16:49.798Z,5.90
2023-12-15T01:19:18.726Z,5.32
2023-12-15T01:21:46.038Z,5.57
2023-12-15T01:24:13.862Z,5.85
2023-12-15T01:26:41.180Z,5.25
2023-12-15T01:29:08.480Z,5.30
2023-12-15T01:31:35.908Z,5.15
2023-12-15T01:34:03.162Z,5.65
2023-12-15T01:36:30.502Z,5.13
2023-12-15T01:38:57.917Z,5.50
2023-12-15T01:41:25.152Z,5.00
2023-12-15T01:43:52.471Z,5.47
2023-12-15T01:46:19.708Z,5.60
2023-12-15T01:48:47.119Z,5.20
2023-12-15T01:51:15.903Z,5.63
2023-12-15T01:53:44.370Z,5.20
2023-12-15T01:56:12.436Z,4.90
2023-12-15T01:58:39.751Z,5.20
2023-12-15T02:01:08.898Z,5.20
2023-12-15T02:03:36.750Z,4.85
2023-12-15T02:06:04.196Z,4.85
2023-12-15T02:08:31.634Z,5.63
2023-12-15T02:10:58.938Z,5.22
2023-12-15T02:13:26.174Z,4.72
2023-12-15T02:15:53.416Z,4.90
2023-12-15T02:18:20.796Z,5.65
2023-12-15T02:20:48.037Z,5.20
2023-12-15T02:23:15.339Z,5.22
2023-12-15T02:25:42.536Z,5.22
2023-12-15T02:28:09.733Z,5.43
2023-12-15T02:30:37.162Z,4.82
2023-12-15T02:33:04.753Z,4.35
2023-12-15T02:35:32.081Z,4.80
2023-12-15T02:37:59.404Z,4.97
2023-12-15T02:40:26.602Z,5.03
2023-12-15T02:42:53.771Z,4.90
2023-12-15T02:45:20.999Z,5.28
2023-12-15T02:47:48.425Z,4.90
2023-12-15T02:50:15.922Z,4.97
2023-12-15T02:52:43.253Z,4.88
2023-12-15T02:55:12.367Z,5.18
2023-12-15T02:57:39.853Z,4.97
2023-12-15T03:00:07.883Z,4.88
2023-12-15T03:02:35.112Z,4.70
2023-12-15T03:05:02.349Z,5.38
2023-12-15T03:07:29.657Z,5.28
2023-12-15T03:09:56.952Z,6.10
2023-12-15T03:12:24.117Z,6.32
2023-12-15T03:14:51.387Z,5.82
2023-12-15T03:17:18.636Z,5.43
2023-12-15T03:19:46.009Z,5.90
2023-12-15T03:22:14.537Z,5.63
2023-12-15T03:24:41.821Z,5.88
2023-12-15T03:27:09.053Z,5.40
2023-12-15T03:29:36.241Z,5.07
2023-12-15T03:32:03.500Z,5.38
2023-12-15T03:34:30.756Z,5.15
2023-12-15T03:36:57.985Z,4.88
2023-12-15T03:39:25.294Z,4.63
2023-12-15T03:41:52.545Z,5.53
2023-12-15T03:44:19.771Z,4.85
2023-12-15T03:46:47.048Z,5.03
2023-12-15T03:49:14.350Z,4.82
2023-12-15T03:51:41.602Z,4.97
2023-12-15T03:54:08.838Z,4.65
2023-12-15T03:56:36.254Z,4.72
2023-12-15T03:59:03.549Z,4.70
2023-12-15T04:01:31.287Z,4.13
2023-12-15T04:03:59.298Z,4.72
2023-12-15T04:06:26.655Z,4.68
2023-12-15T04:08:53.865Z,4.30
2023-12-15T04:11:21.458Z,4.53
2023-12-15T04:13:49.198Z,4.28
2023-12-15T04:16:16.465Z,4.32
2023-12-15T04:18:43.799Z,4.95
2023-12-15T04:21:11.466Z,4.28
2023-12-15T04:23:38.689Z,5.68
2023-12-15T04:26:06.066Z,4.72
2023-12-15T04:28:33.320Z,4.22
2023-12-15T04:31:00.569Z,4.60
2023-12-15T04:33:27.828Z,4.20
2023-12-15T04:35:55.056Z,4.50
2023-12-15T04:38:22.266Z,4.50
2023-12-15T04:40:50.950Z,4.20
2023-12-15T04:43:18.218Z,4.25
2023-12-15T04:45:45.482Z,4.15
2023-12-15T04:48:12.816Z,6.63
2023-12-15T04:50:41.188Z,6.38
2023-12-15T04:53:08.811Z,7.25
2023-12-15T04:55:36.023Z,6.68
2023-12-15T04:58:03.255Z,6.20
2023-12-15T05:00:30.487Z,5.78
2023-12-15T05:02:57.748Z,5.10
2023-12-15T05:05:25.136Z,5.53
2023-12-15T05:07:52.419Z,5.60
2023-12-15T05:10:19.836Z,5.53
2023-12-15T05:12:48.141Z,5.05
2023-12-15T05:15:15.358Z,6.13
2023-12-15T05:17:42.876Z,5.65
2023-12-15T05:20:10.516Z,5.93
2023-12-15T05:22:37.755Z,5.35
2023-12-15T05:25:05.136Z,5.82
2023-12-15T05:27:32.279Z,5.43
2023-12-15T05:29:59.451Z,6.13
2023-12-15T05:32:26.808Z,5.68
2023-12-15T05:34:54.088Z,5.63
2023-12-15T05:37:21.525Z,5.78
2023-12-15T05:39:48.921Z,5.30
2023-12-15T05:42:16.166Z,5.13
2023-12-15T05:44:43.509Z,4.63
2023-12-15T05:47:10.839Z,4.65
2023-12-15T05:49:41.675Z,4.70
2023-12-15T05:52:09.497Z,5.18
2023-12-15T05:54:36.856Z,4.47
2023-12-15T05:57:04.081Z,5.28
2023-12-15T05:59:31.470Z,4.45
2023-12-15T06:01:58.772Z,4.68
2023-12-15T06:04:26.145Z,4.45
2023-12-15T06:06:53.298Z,5.50
2023-12-15T06:09:21.454Z,6.50
2023-12-15T06:11:50.164Z,6.60
2023-12-15T06:14:17.515Z,7.65
2023-12-15T06:16:44.708Z,6.50
2023-12-15T06:19:11.977Z,6.25
2023-12-15T06:21:39.289Z,5.72
2023-12-15T06:24:09.900Z,5.47
2023-12-15T06:26:37.538Z,5.03
2023-12-15T06:29:04.981Z,5.55
2023-12-15T06:31:32.512Z,5.55
2023-12-15T06:34:00.098Z,5.97
2023-12-15T06:36:30.452Z,4.85
2023-12-15T06:38:58.276Z,5.43
2023-12-15T06:41:25.915Z,5.50
2023-12-15T06:43:53.252Z,5.50
2023-12-15T06:46:20.681Z,5.78
2023-12-15T06:48:47.994Z,5.72
2023-12-15T06:51:15.535Z,6.18
2023-12-15T06:53:42.877Z,6.32
2023-12-15T06:56:10.552Z,6.32
2023-12-15T06:58:37.874Z,19.55
2023-12-15T07:01:06.081Z,9.23
2023-12-15T07:03:34.199Z,7.65
2023-12-15T07:06:01.774Z,7.57
2023-12-15T07:08:29.023Z,7.97
2023-12-15T07:10:56.359Z,8.13
2023-12-15T07:13:23.582Z,9.02
2023-12-15T07:15:50.802Z,8.20
2023-12-15T07:18:18.132Z,8.65
2023-12-15T07:20:45.480Z,7.82
2023-12-15T07:23:12.742Z,8.57
2023-12-15T07:25:39.948Z,9.50
2023-12-15T07:28:07.221Z,7.88
2023-12-15T07:30:34.513Z,8.30
2023-12-15T07:33:01.925Z,8.27
2023-12-15T07:35:32.847Z,8.98
2023-12-15T07:38:01.021Z,8.95
2023-12-15T07:40:28.783Z,8.90
2023-12-15T07:42:56.356Z,19.38
2023-12-15T07:45:23.584Z,13.50
2023-12-15T07:47:51.045Z,11.35
2023-12-15T07:50:18.608Z,9.98
2023-12-15T07:52:45.943Z,14.10
2023-12-15T07:55:13.371Z,16.90
2023-12-15T07:57:41.252Z,10.13
2023-12-15T08:00:12.430Z,9.25
2023-12-15T08:02:40.012Z,10.35
2023-12-15T08:05:07.636Z,8.88
2023-12-15T08:07:35.100Z,9.80
2023-12-15T08:10:02.529Z,9.18
2023-12-15T08:12:29.722Z,10.50
2023-12-15T08:14:56.973Z,10.80
2023-12-15T08:17:24.385Z,17.85
2023-12-15T08:19:51.629Z,11.68
2023-12-15T08:22:18.777Z,11.13
2023-12-15T08:24:46.257Z,12.63
2023-12-15T08:27:14.480Z,10.32
2023-12-15T08:29:43.354Z,9.15
2023-12-15T08:32:10.757Z,33.50
2023-12-15T08:34:38.067Z,38.97
2023-12-15T08:37:05.380Z,16.98
2023-12-15T08:39:32.624Z,10.68
2023-12-15T08:41:59.887Z,11.05
2023-12-15T08:44:32.143Z,7.80
2023-12-15T08:47:02.104Z,7.72
2023-12-15T08:49:29.795Z,7.93
2023-12-15T08:51:57.408Z,7.35
2023-12-15T08:54:24.812Z,8.30
2023-12-15T08:56:52.125Z,8.73
2023-12-15T08:59:19.501Z,8.90
2023-12-15T09:01:46.749Z,7.32
2023-12-15T09:04:13.975Z,7.97
2023-12-15T09:06:44.609Z,6.93
2023-12-15T09:09:14.063Z,6.70
2023-12-15T09:11:41.510Z,6.90
2023-12-15T09:14:08.934Z,6.95
2023-12-15T09:16:36.373Z,6.60
2023-12-15T09:19:03.940Z,7.50
2023-12-15T09:21:31.277Z,7.47
2023-12-15T09:23:58.836Z,6.78
2023-12-15T09:26:26.461Z,6.97
2023-12-15T09:28:54.097Z,10.00
2023-12-15T09:31:21.701Z,6.35
2023-12-15T09:33:49.856Z,7.57
2023-12-15T09:36:17.345Z,8.40
2023-12-15T09:38:44.714Z,10.45
2023-12-15T09:41:12.083Z,13.50
2023-12-15T09:43:39.447Z,9.90
2023-12-15T09:46:06.808Z,7.80
2023-12-15T09:48:34.564Z,8.50
2023-12-15T09:51:03.959Z,7.53
2023-12-15T09:53:35.858Z,6.97
2023-12-15T09:56:03.754Z,6.35
2023-12-15T09:58:31.018Z,6.35
2023-12-15T10:00:58.764Z,6.00
2023-12-15T10:03:26.129Z,5.40
2023-12-15T10:05:53.544Z,5.45
2023-12-15T10:08:25.242Z,5.40
2023-12-15T10:10:53.386Z,11.05
2023-12-15T10:13:20.994Z,5.97
2023-12-15T10:15:54.635Z,5.78
2023-12-15T10:18:29.401Z,5.45
2023-12-15T10:21:05.428Z,5.60
2023-12-15T10:23:33.274Z,5.75
2023-12-15T10:26:01.127Z,6.38
2023-12-15T10:28:28.318Z,6.00
2023-12-15T10:30:55.722Z,5.78
2023-12-15T10:33:23.800Z,6.30
2023-12-15T10:35:51.673Z,5.38
2023-12-15T10:38:18.956Z,5.53
2023-12-15T10:40:46.178Z,6.13
2023-12-15T10:43:13.693Z,5.50
2023-12-15T10:45:41.016Z,6.05
2023-12-15T10:48:09.690Z,5.30
2023-12-15T10:50:37.968Z,5.93
2023-12-15T10:53:05.636Z,5.30
2023-12-15T10:55:33.313Z,5.88
2023-12-15T10:58:04.223Z,5.78
2023-12-15T11:00:32.424Z,5.50
2023-12-15T11:03:00.269Z,5.57
2023-12-15T11:05:33.244Z,5.40
2023-12-15T11:08:03.820Z,5.38
2023-12-15T11:10:31.180Z,5.32
2023-12-15T11:12:58.416Z,5.60
2023-12-15T11:15:27.567Z,7.00
2023-12-15T11:18:01.601Z,6.40
2023-12-15T11:20:29.826Z,8.15
2023-12-15T11:23:10.528Z,5.30
2023-12-15T11:25:39.743Z,5.05
2023-12-15T11:28:11.205Z,5.25
2023-12-15T11:30:40.734Z,4.80
2023-12-15T11:33:26.264Z,4.85
2023-12-15T11:35:54.485Z,5.38
2023-12-15T11:38:25.234Z,4.55
2023-12-15T11:40:54.243Z,5.03
2023-12-15T11:43:21.823Z,5.35
2023-12-15T11:45:49.919Z,5.18
2023-12-15T11:48:17.904Z,6.47
2023-12-15T11:50:45.860Z,6.53
2023-12-15T11:53:17.017Z,13.65
2023-12-15T11:55:50.590Z,4.70
2023-12-15T11:58:21.474Z,4.57
2023-12-15T12:00:49.047Z,4.60
2023-12-15T12:03:17.513Z,4.68
2023-12-15T12:05:49.242Z,4.50
2023-12-15T12:08:16.846Z,4.43
2023-12-15T12:10:44.220Z,4.63
2023-12-15T12:13:12.370Z,4.50
2023-12-15T12:15:53.916Z,4.25
2023-12-15T12:18:21.684Z,5.13
2023-12-15T12:20:49.507Z,3.88
2023-12-15T12:23:24.911Z,3.88
2023-12-15T12:25:56.915Z,4.28
2023-12-15T12:28:24.794Z,4.35
2023-12-15T12:30:52.084Z,4.85
2023-12-15T12:33:20.635Z,12.27
2023-12-15T12:35:48.044Z,5.20
2023-12-15T12:38:15.410Z,8.38
2023-12-15T12:40:44.102Z,5.32
2023-12-15T12:43:12.115Z,4.70
2023-12-15T12:45:39.340Z,4.32
2023-12-15T12:48:06.676Z,5.00
2023-12-15T12:50:34.145Z,4.38
2023-12-15T12:53:02.393Z,4.40
2023-12-15T12:55:29.598Z,4.97
2023-12-15T12:57:57.396Z,5.05
2023-12-15T13:00:24.620Z,4.60
2023-12-15T13:02:52.133Z,5.03
2023-12-15T13:05:19.687Z,5.63
2023-12-15T13:07:47.512Z,5.07
2023-12-15T13:10:18.250Z,4.25
2023-12-15T13:12:53.200Z,4.57
2023-12-15T13:15:20.400Z,3.50
2023-12-15T13:17:47.658Z,3.88
2023-12-15T13:20:14.977Z,3.65
2023-12-15T13:22:48.018Z,4.20
2023-12-15T13:25:16.684Z,4.78
2023-12-15T13:27:49.658Z,4.15
2023-12-15T13:30:17.155Z,3.33
2023-12-15T13:32:44.818Z,4.20
2023-12-15T13:35:13.087Z,2.90
2023-12-15T13:37:40.326Z,3.03
2023-12-15T13:40:07.958Z,3.03
2023-12-15T13:42:37.199Z,2.58
2023-12-15T13:45:06.459Z,2.38
2023-12-15T13:47:34.701Z,3.42
2023-12-15T13:50:02.245Z,3.00
2023-12-15T13:52:29.787Z,2.53
2023-12-15T13:54:57.122Z,2.92
2023-12-15T13:57:24.320Z,2.45
2023-12-15T13:59:52.451Z,2.58
2023-12-15T14:02:19.972Z,2.30
2023-12-15T14:04:47.186Z,2.20
2023-12-15T14:07:14.465Z,2.22
2023-12-15T14:09:41.710Z,2.72
2023-12-15T14:12:09.092Z,2.70
2023-12-15T14:14:36.437Z,2.30
2023-12-15T14:17:04.510Z,2.33
2023-12-15T14:19:32.092Z,2.60
2023-12-15T14:21:59.321Z,2.55
2023-12-15T14:24:26.656Z,2.60
2023-12-15T14:26:54.161Z,2.70
2023-12-15T14:29:21.605Z,2.40
2023-12-15T14:31:48.924Z,3.03
2023-12-15T14:34:16.331Z,2.47
2023-12-15T14:36:43.965Z,3.60
2023-12-15T14:39:11.643Z,3.10
2023-12-15T14:41:38.936Z,3.60
2023-12-15T14:44:06.440Z,3.35
2023-12-15T14:46:35.298Z,4.40
2023-12-15T14:49:03.032Z,4.10
2023-12-15T14:51:30.587Z,4.10
2023-12-15T14:53:57.809Z,3.55
2023-12-15T14:56:25.195Z,2.90
2023-12-15T14:58:53.807Z,3.13
2023-12-15T15:01:23.370Z,3.88
2023-12-15T15:03:51.060Z,4.00
2023-12-15T15:06:26.832Z,3.95
2023-12-15T15:08:59.839Z,3.33
2023-12-15T15:11:27.249Z,3.85
2023-12-15T15:13:54.656Z,3.42
2023-12-15T15:16:21.858Z,4.70
2023-12-15T15:18:49.193Z,7.28
2023-12-15T15:21:16.745Z,6.35
2023-12-15T15:23:44.039Z,5.80
2023-12-15T15:26:11.445Z,4.85
2023-12-15T15:28:38.765Z,3.63
2023-12-15T15:31:06.295Z,3.83
2023-12-15T15:33:33.913Z,3.40
2023-12-15T15:36:01.985Z,4.07
2023-12-15T15:38:29.324Z,4.63
2023-12-15T15:40:56.510Z,4.10
2023-12-15T15:43:23.722Z,5.40
2023-12-15T15:45:51.314Z,5.30
2023-12-15T15:48:18.964Z,4.50
2023-12-15T15:50:46.676Z,4.50
2023-12-15T15:53:14.304Z,3.83
2023-12-15T15:55:41.518Z,4.07
2023-12-15T15:58:08.992Z,3.70
2023-12-15T16:00:36.498Z,3.25
2023-12-15T16:03:04.234Z,3.42
2023-12-15T16:05:35.071Z,3.78
2023-12-15T16:08:03.003Z,4.00
2023-12-15T16:10:44.124Z,3.97
2023-12-15T16:13:14.461Z,5.53
2023-12-15T16:15:41.928Z,6.68
2023-12-15T16:18:09.326Z,6.55
2023-12-15T16:20:36.613Z,5.78
2023-12-15T16:23:03.823Z,4.72
2023-12-15T16:25:31.059Z,4.70
2023-12-15T16:27:58.437Z,4.15
2023-12-15T16:30:25.753Z,4.90
2023-12-15T16:32:53.502Z,9.60
2023-12-15T16:35:20.911Z,9.85
2023-12-15T16:37:48.143Z,6.90
2023-12-15T16:40:15.630Z,5.18
2023-12-15T16:42:46.432Z,4.88
2023-12-15T16:45:14.779Z,5.50
2023-12-15T16:47:45.678Z,5.90
2023-12-15T16:50:13.058Z,4.97
2023-12-15T16:52:40.589Z,5.18
2023-12-15T16:55:08.177Z,4.72
2023-12-15T16:57:36.551Z,3.80
2023-12-15T17:00:04.485Z,4.70
2023-12-15T17:02:32.026Z,4.95
2023-12-15T17:04:59.519Z,5.32
2023-12-15T17:07:27.124Z,4.85
2023-12-15T17:09:54.593Z,4.93
2023-12-15T17:12:21.870Z,5.20
2023-12-15T17:14:49.100Z,5.03
2023-12-15T17:17:16.430Z,4.80
2023-12-15T17:19:43.907Z,5.10
2023-12-15T17:22:11.333Z,5.38
2023-12-15T17:24:39.507Z,6.53
2023-12-15T17:27:06.933Z,7.53
2023-12-15T17:29:43.627Z,6.97
2023-12-15T17:32:14.415Z,9.13
2023-12-15T17:34:41.675Z,7.15
2023-12-15T17:37:08.999Z,6.80
2023-12-15T17:39:36.415Z,6.40
2023-12-15T17:42:03.930Z,6.25
2023-12-15T17:44:31.440Z,6.38
2023-12-15T17:46:59.061Z,6.18
2023-12-15T17:49:26.578Z,6.43
2023-12-15T17:51:53.991Z,5.40
2023-12-15T17:54:21.232Z,6.28
2023-12-15T17:56:48.967Z,5.55
2023-12-15T17:59:16.266Z,6.47
2023-12-15T18:01:44.355Z,5.88
2023-12-15T18:04:11.675Z,6.00
2023-12-15T18:06:38.975Z,5.82
2023-12-15T18:09:06.745Z,5.95
2023-12-15T18:11:34.059Z,6.18
2023-12-15T18:14:02.061Z,6.13
2023-12-15T18:16:29.272Z,5.78
2023-12-15T18:18:57.828Z,6.03
2023-12-15T18:21:26.432Z,6.97
2023-12-15T18:23:54.234Z,6.53
2023-12-15T18:26:21.525Z,6.20
2023-12-15T18:28:48.809Z,8.23
2023-12-15T18:31:16.346Z,6.95
2023-12-15T18:33:43.726Z,7.20
2023-12-15T18:36:11.029Z,5.97
2023-12-15T18:38:38.317Z,6.45
2023-12-15T18:41:05.729Z,6.30
2023-12-15T18:43:33.107Z,6.32
2023-12-15T18:46:00.590Z,6.55
2023-12-15T18:48:28.256Z,6.55
2023-12-15T18:50:56.752Z,5.63
2023-12-15T18:53:23.939Z,5.57
2023-12-15T18:55:51.205Z,5.55
2023-12-15T18:58:18.464Z,5.60
2023-12-15T19:00:45.836Z,5.60
2023-12-15T19:03:13.127Z,5.78
2023-12-15T19:05:40.927Z,5.63
2023-12-15T19:08:08.264Z,4.65
2023-12-15T19:10:35.519Z,5.63
2023-12-15T19:13:02.833Z,5.65
2023-12-15T19:15:30.136Z,6.15
2023-12-15T19:17:58.120Z,5.57
2023-12-15T19:20:30.416Z,5.68
2023-12-15T19:22:57.851Z,6.97
2023-12-15T19:25:26.207Z,7.03
2023-12-15T19:27:53.500Z,5.50
2023-12-15T19:30:20.823Z,5.72
2023-12-15T19:32:48.146Z,5.95
2023-12-15T19:35:15.749Z,6.50
2023-12-15T19:37:43.102Z,6.13
2023-12-15T19:40:10.538Z,6.60
2023-12-15T19:42:38.012Z,6.13
2023-12-15T19:45:05.546Z,6.13
2023-12-15T19:47:32.744Z,6.68
2023-12-15T19:50:00.421Z,7.40
2023-12-15T19:52:29.185Z,7.47
2023-12-15T19:54:56.428Z,9.20
2023-12-15T19:57:23.711Z,9.02
2023-12-15T19:59:50.886Z,9.27
2023-12-15T20:02:18.068Z,8.55
2023-12-15T20:04:46.037Z,8.68
2023-12-15T20:07:13.485Z,10.35
2023-12-15T20:09:40.736Z,8.88
2023-12-15T20:12:08.141Z,8.20
2023-12-15T20:14:35.461Z,8.23
2023-12-15T20:17:02.679Z,8.95
2023-12-15T20:19:30.081Z,7.97
2023-12-15T20:21:59.868Z,7.68
2023-12-15T20:24:27.245Z,8.35
2023-12-15T20:26:54.446Z,10.07
2023-12-15T20:29:21.629Z,9.73
2023-12-15T20:31:48.884Z,9.23
2023-12-15T20:34:17.576Z,7.35
2023-12-15T20:36:45.357Z,9.65
2023-12-15T20:39:16.324Z,8.05
2023-12-15T20:41:44.216Z,8.55
2023-12-15T20:44:14.561Z,7.80
2023-12-15T20:46:43.960Z,7.55
2023-12-15T20:49:11.376Z,6.80
2023-12-15T20:51:39.044Z,7.65
2023-12-15T20:54:06.326Z,7.28
2023-12-15T20:56:34.412Z,7.30
2023-12-15T20:59:01.745Z,7.55
2023-12-15T21:01:29.101Z,7.85
2023-12-15T21:03:58.038Z,6.85
2023-12-15T21:06:27.640Z,8.55
2023-12-15T21:08:54.993Z,8.00
2023-12-15T21:11:22.904Z,7.43
2023-12-15T21:13:52.828Z,7.38
2023-12-15T21:16:27.853Z,7.15
2023-12-15T21:18:56.355Z,7.57
2023-12-15T21:21:31.758Z,8.38
2023-12-15T21:23:59.531Z,7.78
2023-12-15T21:26:27.492Z,8.05
2023-12-15T21:28:56.691Z,8.38
2023-12-15T21:31:24.492Z,9.65
2023-12-15T21:33:52.328Z,9.75
2023-12-15T21:36:19.543Z,8.52
2023-12-15T21:38:46.853Z,9.00
2023-12-15T21:41:18.274Z,8.93
2023-12-15T21:43:45.844Z,8.75
2023-12-15T21:46:15.786Z,8.20
2023-12-15T21:48:44.299Z,7.72
2023-12-15T21:51:11.927Z,7.18
2023-12-15T21:53:39.201Z,8.23
2023-12-15T21:56:09.588Z,7.30
2023-12-15T21:58:39.357Z,7.80
2023-12-15T22:01:07.227Z,6.68
2023-12-15T22:03:34.507Z,6.60
2023-12-15T22:06:01.761Z,6.95
2023-12-15T22:08:28.937Z,6.78
2023-12-15T22:10:56.166Z,7.32
2023-12-15T22:13:23.442Z,6.38
2023-12-15T22:15:50.706Z,6.95
2023-12-15T22:18:20.954Z,6.35
2023-12-15T22:20:48.487Z,6.90
2023-12-15T22:23:15.686Z,7.32
2023-12-15T22:25:43.316Z,7.22
2023-12-15T22:28:10.518Z,7.47
2023-12-15T22:30:41.229Z,7.63
2023-12-15T22:33:10.260Z,7.18
2023-12-15T22:35:38.249Z,7.07
2023-12-15T22:38:05.425Z,7.43
2023-12-15T22:40:33.417Z,7.15
2023-12-15T22:43:05.023Z,5.97
2023-12-15T22:45:32.835Z,6.30
2023-12-15T22:48:00.204Z,7.20
2023-12-15T22:50:28.325Z,6.78
2023-12-15T22:52:55.643Z,6.18
2023-12-15T22:55:22.928Z,6.28
2023-12-15T22:57:53.162Z,6.95
2023-12-15T23:00:21.982Z,7.05
2023-12-15T23:02:49.563Z,7.55
2023-12-15T23:05:17.098Z,6.95
2023-12-15T23:07:44.820Z,7.40
2023-12-15T23:10:12.471Z,9.43
2023-12-15T23:12:39.761Z,12.18
2023-12-15T23:15:11.372Z,9.05
2023-12-15T23:17:45.387Z,6.22
2023-12-15T23:20:12.782Z,5.40
2023-12-15T23:22:40.163Z,4.72
2023-12-15T23:25:07.715Z,4.80
2023-12-15T23:27:36.567Z,4.25
2023-12-15T23:30:03.989Z,3.30
2023-12-15T23:32:32.272Z,3.90
2023-12-15T23:34:59.542Z,3.75
2023-12-15T23:37:26.756Z,3.88
2023-12-15T23:39:55.443Z,3.78
2023-12-15T23:42:23.111Z,3.72
2023-12-15T23:44:50.399Z,3.72
2023-12-15T23:47:17.603Z,3.80
2023-12-15T23:49:44.814Z,3.50
2023-12-15T23:52:12.033Z,3.22
2023-12-15T23:54:43.944Z,4.13
2023-12-15T23:57:11.469Z,3.65
2023-12-15T23:59:38.942Z,3.60
